createdAt,value
2023-05-22T00:00:24.469Z,37.69
2023-05-22T00:01:24.470Z,37.72
2023-05-22T00:02:24.565Z,37.68
2023-05-22T00:03:24.619Z,37.67
2023-05-22T00:04:24.498Z,37.70
2023-05-22T00:05:24.544Z,37.70
2023-05-22T00:06:24.538Z,37.69
2023-05-22T00:07:24.530Z,37.70
2023-05-22T00:08:24.518Z,37.69
2023-05-22T00:09:24.543Z,37.70
2023-05-22T00:10:24.553Z,37.68
2023-05-22T00:11:24.573Z,37.69
2023-05-22T00:12:24.565Z,37.71
2023-05-22T00:13:24.573Z,37.69
2023-05-22T00:14:24.627Z,37.71
2023-05-22T00:15:24.592Z,37.70
2023-05-22T00:16:24.637Z,37.69
2023-05-22T00:17:24.735Z,37.70
2023-05-22T00:18:24.591Z,37.69
2023-05-22T00:19:24.615Z,37.71
2023-05-22T00:20:24.586Z,37.69
2023-05-22T00:21:24.636Z,37.69
2023-05-22T00:22:24.646Z,37.70
2023-05-22T00:23:24.689Z,37.72
2023-05-22T00:24:24.643Z,37.68
2023-05-22T00:25:24.697Z,37.69
2023-05-22T00:26:24.636Z,37.68
2023-05-22T00:27:24.688Z,37.71
2023-05-22T00:28:24.693Z,37.71
2023-05-22T00:29:24.676Z,37.68
2023-05-22T00:30:24.687Z,37.71
2023-05-22T00:31:24.757Z,37.73
2023-05-22T00:32:24.750Z,37.71
2023-05-22T00:33:24.770Z,37.69
2023-05-22T00:34:24.761Z,37.71
2023-05-22T00:35:24.745Z,37.72
2023-05-22T00:36:24.767Z,37.72
2023-05-22T00:37:24.772Z,37.70
2023-05-22T00:38:24.789Z,37.73
2023-05-22T00:39:24.804Z,37.72
2023-05-22T00:40:24.830Z,37.71
2023-05-22T00:41:24.807Z,37.71
2023-05-22T00:42:24.856Z,37.70
2023-05-22T00:43:24.825Z,37.71
2023-05-22T00:44:24.841Z,37.73
2023-05-22T00:45:24.900Z,37.72
2023-05-22T00:46:24.940Z,37.72
2023-05-22T00:47:24.918Z,37.74
2023-05-22T00:48:24.872Z,37.71
2023-05-22T00:49:24.862Z,37.71
2023-05-22T00:50:24.908Z,37.73
2023-05-22T00:51:24.924Z,37.73
2023-05-22T00:52:24.912Z,37.70
2023-05-22T00:53:24.919Z,37.73
2023-05-22T00:54:24.918Z,37.72
2023-05-22T00:55:24.949Z,37.72
2023-05-22T00:56:24.956Z,37.73
2023-05-22T00:57:25.004Z,37.73
2023-05-22T00:58:24.972Z,37.73
2023-05-22T00:59:24.969Z,37.72
2023-05-22T01:00:25.017Z,37.71
2023-05-22T01:01:25.044Z,37.73
2023-05-22T01:02:25.038Z,37.72
2023-05-22T01:03:25.121Z,37.73
2023-05-22T01:04:25.073Z,37.72
2023-05-22T01:05:25.013Z,37.73
2023-05-22T01:06:25.031Z,37.72
2023-05-22T01:07:25.021Z,37.72
2023-05-22T01:08:25.029Z,37.71
2023-05-22T01:09:25.053Z,37.72
2023-05-22T01:10:25.047Z,37.73
2023-05-22T01:11:25.072Z,37.72
2023-05-22T01:12:25.051Z,37.73
2023-05-22T01:13:25.070Z,37.73
2023-05-22T01:14:25.088Z,37.74
2023-05-22T01:15:25.099Z,37.72
2023-05-22T01:16:25.199Z,37.72
2023-05-22T01:17:25.135Z,37.71
2023-05-22T01:18:25.117Z,37.72
2023-05-22T01:19:25.179Z,37.71
2023-05-22T01:20:25.130Z,37.71
2023-05-22T01:21:25.168Z,37.73
2023-05-22T01:22:25.218Z,37.72
2023-05-22T01:23:25.144Z,37.72
2023-05-22T01:24:25.153Z,37.71
2023-05-22T01:25:25.152Z,37.74
2023-05-22T01:26:25.146Z,37.72
2023-05-22T01:27:25.165Z,37.73
2023-05-22T01:28:25.179Z,37.74
2023-05-22T01:29:25.209Z,37.74
2023-05-22T01:30:25.205Z,37.74
2023-05-22T01:31:25.213Z,37.74
2023-05-22T01:32:25.382Z,37.75
2023-05-22T01:33:25.426Z,37.74
2023-05-22T01:34:25.220Z,37.75
2023-05-22T01:35:25.230Z,37.74
2023-05-22T01:36:25.252Z,37.73
2023-05-22T01:37:25.267Z,37.75
2023-05-22T01:38:25.277Z,37.75
2023-05-22T01:39:25.287Z,37.75
2023-05-22T01:40:25.289Z,37.74
2023-05-22T01:41:25.301Z,37.74
2023-05-22T01:42:25.372Z,37.76
2023-05-22T01:43:25.362Z,37.73
2023-05-22T01:44:25.375Z,37.74
2023-05-22T01:45:25.381Z,37.75
2023-05-22T01:46:25.482Z,37.76
2023-05-22T01:47:25.441Z,37.73
2023-05-22T01:48:25.426Z,37.77
2023-05-22T01:49:25.391Z,37.77
2023-05-22T01:50:25.409Z,37.76
2023-05-22T01:51:25.431Z,37.76
2023-05-22T01:52:25.458Z,37.74
2023-05-22T01:53:25.446Z,37.76
2023-05-22T01:54:25.468Z,37.74
2023-05-22T01:55:25.470Z,37.77
2023-05-22T01:56:25.479Z,37.77
2023-05-22T01:57:25.892Z,37.75
2023-05-22T01:58:25.507Z,37.78
2023-05-22T01:59:25.550Z,37.76
2023-05-22T02:00:25.564Z,37.77
2023-05-22T02:01:25.567Z,37.74
2023-05-22T02:02:25.667Z,37.75
2023-05-22T02:03:25.656Z,37.76
2023-05-22T02:04:25.608Z,37.75
2023-05-22T02:05:25.618Z,37.76
2023-05-22T02:06:25.602Z,37.77
2023-05-22T02:07:25.627Z,37.74
2023-05-22T02:08:25.736Z,37.77
2023-05-22T02:09:25.674Z,37.78
2023-05-22T02:10:25.689Z,37.73
2023-05-22T02:11:25.687Z,37.79
2023-05-22T02:12:25.687Z,37.76
2023-05-22T02:13:25.710Z,37.80
2023-05-22T02:14:25.710Z,37.76
2023-05-22T02:15:25.741Z,37.79
2023-05-22T02:16:25.747Z,37.78
2023-05-22T02:17:25.720Z,37.75
2023-05-22T02:18:25.729Z,37.79
2023-05-22T02:19:25.851Z,37.79
2023-05-22T02:20:25.781Z,37.79
2023-05-22T02:21:25.832Z,37.77
2023-05-22T02:22:25.825Z,37.79
2023-05-22T02:23:25.845Z,37.78
2023-05-22T02:24:25.934Z,37.78
2023-05-22T02:25:25.853Z,37.78
2023-05-22T02:26:25.862Z,37.78
2023-05-22T02:27:25.895Z,37.78
2023-05-22T02:28:25.897Z,37.79
2023-05-22T02:29:25.933Z,37.79
2023-05-22T02:30:25.926Z,37.80
2023-05-22T02:31:25.940Z,37.82
2023-05-22T02:32:25.962Z,37.81
2023-05-22T02:33:25.968Z,37.79
2023-05-22T02:34:25.977Z,37.79
2023-05-22T02:35:25.972Z,37.80
2023-05-22T02:36:26.039Z,37.80
2023-05-22T02:37:26.035Z,37.78
2023-05-22T02:38:26.018Z,37.81
2023-05-22T02:39:26.039Z,37.79
2023-05-22T02:40:26.084Z,37.81
2023-05-22T02:41:26.112Z,37.80
2023-05-22T02:42:26.106Z,37.79
2023-05-22T02:43:26.121Z,37.80
2023-05-22T02:44:26.150Z,37.83
2023-05-22T02:45:26.162Z,37.81
2023-05-22T02:46:26.224Z,37.80
2023-05-22T02:47:26.219Z,37.80
2023-05-22T02:48:26.219Z,37.78
2023-05-22T02:49:26.270Z,37.80
2023-05-22T02:50:26.217Z,37.80
2023-05-22T02:51:26.228Z,37.80
2023-05-22T02:52:26.266Z,37.82
2023-05-22T02:53:26.245Z,37.81
2023-05-22T02:54:26.283Z,37.79
2023-05-22T02:55:26.305Z,37.78
2023-05-22T02:56:26.298Z,37.81
2023-05-22T02:57:26.313Z,37.80
2023-05-22T02:58:26.375Z,37.81
2023-05-22T02:59:26.377Z,37.80
2023-05-22T03:00:26.392Z,37.80
2023-05-22T03:01:26.559Z,37.79
2023-05-22T03:02:26.511Z,37.80
2023-05-22T03:03:26.573Z,37.80
2023-05-22T03:04:26.469Z,37.81
2023-05-22T03:05:26.533Z,37.78
2023-05-22T03:06:26.468Z,37.81
2023-05-22T03:07:26.532Z,37.81
2023-05-22T03:08:26.530Z,37.79
2023-05-22T03:09:26.564Z,37.83
2023-05-22T03:10:26.559Z,37.80
2023-05-22T03:11:26.564Z,37.81
2023-05-22T03:12:26.620Z,37.81
2023-05-22T03:13:26.639Z,37.82
2023-05-22T03:14:26.625Z,37.81
2023-05-22T03:15:26.642Z,37.79
2023-05-22T03:16:26.777Z,37.81
2023-05-22T03:17:26.737Z,37.81
2023-05-22T03:18:27.640Z,37.81
2023-05-22T03:19:27.156Z,37.84
2023-05-22T03:20:26.730Z,37.81
2023-05-22T03:21:26.741Z,37.81
2023-05-22T03:22:26.803Z,37.81
2023-05-22T03:23:26.756Z,37.80
2023-05-22T03:24:26.872Z,37.83
2023-05-22T03:25:26.854Z,37.82
2023-05-22T03:26:26.894Z,37.82
2023-05-22T03:27:26.873Z,37.81
2023-05-22T03:28:26.890Z,37.81
2023-05-22T03:29:26.899Z,37.81
2023-05-22T03:30:26.921Z,37.81
2023-05-22T03:31:26.925Z,37.81
2023-05-22T03:32:26.976Z,37.82
2023-05-22T03:33:27.031Z,37.81
2023-05-22T03:34:27.894Z,37.81
2023-05-22T03:35:26.988Z,37.82
2023-05-22T03:36:27.011Z,37.79
2023-05-22T03:37:27.035Z,37.82
2023-05-22T03:38:27.046Z,37.81
2023-05-22T03:39:27.129Z,37.81
2023-05-22T03:40:27.092Z,37.81
2023-05-22T03:41:27.119Z,37.81
2023-05-22T03:42:27.141Z,37.80
2023-05-22T03:43:27.142Z,37.80
2023-05-22T03:44:27.185Z,37.80
2023-05-22T03:45:27.186Z,37.82
2023-05-22T03:46:27.360Z,37.82
2023-05-22T03:47:27.264Z,37.80
2023-05-22T03:48:27.232Z,37.81
2023-05-22T03:49:27.284Z,37.79
2023-05-22T03:50:27.291Z,37.81
2023-05-22T03:51:27.401Z,37.79
2023-05-22T03:52:27.522Z,37.81
2023-05-22T03:53:27.356Z,37.81
2023-05-22T03:54:27.467Z,37.80
2023-05-22T03:55:27.450Z,37.80
2023-05-22T03:56:27.490Z,37.79
2023-05-22T03:57:27.497Z,37.81
2023-05-22T03:58:27.550Z,37.78
2023-05-22T03:59:27.535Z,37.77
2023-05-22T04:00:27.483Z,37.80
2023-05-22T04:01:27.579Z,37.78
2023-05-22T04:02:27.635Z,37.79
2023-05-22T04:03:27.749Z,37.79
2023-05-22T04:04:27.589Z,37.79
2023-05-22T04:05:27.671Z,37.78
2023-05-22T04:06:27.605Z,37.78
2023-05-22T04:07:27.650Z,37.78
2023-05-22T04:08:27.695Z,37.77
2023-05-22T04:09:27.689Z,37.76
2023-05-22T04:10:27.649Z,37.77
2023-05-22T04:11:27.702Z,37.76
2023-05-22T04:12:27.677Z,37.76
2023-05-22T04:13:27.733Z,37.76
2023-05-22T04:14:27.723Z,37.77
2023-05-22T04:15:27.789Z,37.78
2023-05-22T04:16:27.913Z,37.77
2023-05-22T04:17:27.817Z,37.76
2023-05-22T04:18:27.780Z,37.75
2023-05-22T04:19:27.909Z,37.72
2023-05-22T04:20:27.799Z,37.73
2023-05-22T04:21:27.842Z,37.75
2023-05-22T04:22:27.904Z,37.75
2023-05-22T04:23:27.865Z,37.76
2023-05-22T04:24:27.959Z,37.74
2023-05-22T04:25:27.915Z,37.72
2023-05-22T04:26:27.873Z,37.74
2023-05-22T04:27:27.892Z,37.73
2023-05-22T04:28:27.932Z,37.71
2023-05-22T04:29:27.957Z,37.70
2023-05-22T04:30:27.927Z,37.72
2023-05-22T04:31:28.048Z,37.71
2023-05-22T04:32:28.073Z,37.71
2023-05-22T04:33:27.987Z,37.72
2023-05-22T04:34:28.003Z,37.68
2023-05-22T04:35:28.005Z,37.68
2023-05-22T04:36:28.094Z,37.69
2023-05-22T04:37:28.048Z,37.69
2023-05-22T04:38:28.046Z,37.69
2023-05-22T04:39:28.074Z,37.67
2023-05-22T04:40:28.106Z,37.69
2023-05-22T04:41:28.096Z,37.66
2023-05-22T04:42:28.097Z,37.66
2023-05-22T04:43:28.090Z,37.66
2023-05-22T04:44:28.143Z,37.64
2023-05-22T04:45:28.129Z,37.65
2023-05-22T04:46:28.123Z,37.64
2023-05-22T04:47:28.217Z,37.63
2023-05-22T04:48:28.193Z,37.62
2023-05-22T04:49:28.177Z,37.60
2023-05-22T04:50:28.187Z,37.63
2023-05-22T04:51:28.213Z,37.59
2023-05-22T04:52:28.225Z,37.59
2023-05-22T04:53:28.244Z,37.60
2023-05-22T04:54:28.214Z,37.59
2023-05-22T04:55:28.261Z,37.57
2023-05-22T04:56:36.073Z,37.57
2023-05-22T04:57:29.317Z,37.58
2023-05-22T04:58:28.262Z,37.56
2023-05-22T04:59:28.200Z,37.53
2023-05-22T05:00:28.208Z,37.53
2023-05-22T05:01:29.470Z,37.50
2023-05-22T05:02:28.234Z,37.51
2023-05-22T05:03:28.206Z,37.52
2023-05-22T05:04:28.207Z,37.51
2023-05-22T05:05:28.226Z,37.51
2023-05-22T05:06:28.175Z,37.51
2023-05-22T05:07:28.246Z,37.51
2023-05-22T05:08:28.225Z,37.51
2023-05-22T05:09:28.168Z,37.51
2023-05-22T05:10:28.119Z,37.51
2023-05-22T05:11:28.214Z,37.50
2023-05-22T05:12:28.185Z,37.48
2023-05-22T05:13:28.208Z,37.49
2023-05-22T05:14:28.192Z,37.47
2023-05-22T05:15:28.118Z,37.48
2023-05-22T05:16:28.143Z,37.47
2023-05-22T05:17:28.176Z,37.47
2023-05-22T05:18:28.054Z,37.47
2023-05-22T05:19:28.209Z,37.47
2023-05-22T05:20:28.092Z,37.45
2023-05-22T05:22:28.112Z,37.43
2023-05-22T05:23:28.110Z,37.45
2023-05-22T05:24:28.120Z,37.40
2023-05-22T05:25:28.089Z,37.39
2023-05-22T05:26:28.086Z,37.39
2023-05-22T05:27:28.294Z,37.39
2023-05-22T05:28:28.060Z,37.35
2023-05-22T05:29:28.085Z,37.32
2023-05-22T05:30:28.071Z,37.33
2023-05-22T05:31:28.062Z,37.32
2023-05-22T05:32:28.177Z,37.32
2023-05-22T05:33:28.074Z,37.30
2023-05-22T05:34:28.090Z,37.30
2023-05-22T05:35:28.089Z,37.31
2023-05-22T05:36:28.063Z,37.27
2023-05-22T05:37:28.072Z,37.29
2023-05-22T05:38:28.036Z,37.28
2023-05-22T05:39:28.063Z,37.29
2023-05-22T05:40:28.032Z,37.26
2023-05-22T05:41:28.087Z,37.29
2023-05-22T05:42:28.028Z,37.25
2023-05-22T05:43:28.042Z,37.26
2023-05-22T05:44:28.043Z,37.27
2023-05-22T05:45:28.043Z,37.25
2023-05-22T05:46:28.103Z,37.22
2023-05-22T05:47:28.049Z,37.22
2023-05-22T05:48:28.021Z,37.30
2023-05-22T05:49:28.025Z,37.40
2023-05-22T05:50:28.027Z,37.37
2023-05-22T05:51:28.033Z,37.37
2023-05-22T05:52:28.050Z,37.41
2023-05-22T05:53:28.055Z,37.36
2023-05-22T05:54:28.063Z,37.38
2023-05-22T05:55:28.090Z,37.38
2023-05-22T05:56:28.076Z,37.40
2023-05-22T05:57:28.075Z,37.40
2023-05-22T05:58:28.046Z,37.39
2023-05-22T05:59:28.023Z,37.44
2023-05-22T06:00:28.039Z,37.43
2023-05-22T06:01:28.009Z,37.41
2023-05-22T06:02:28.114Z,37.39
2023-05-22T06:03:28.142Z,37.39
2023-05-22T06:04:27.984Z,37.40
2023-05-22T06:05:28.015Z,37.40
2023-05-22T06:06:27.995Z,37.41
2023-05-22T06:07:27.963Z,37.39
2023-05-22T06:08:28.027Z,37.40
2023-05-22T06:09:27.991Z,37.36
2023-05-22T06:10:27.965Z,37.37
2023-05-22T06:11:27.974Z,37.37
2023-05-22T06:12:27.983Z,37.37
2023-05-22T06:13:27.938Z,37.37
2023-05-22T06:14:27.911Z,37.34
2023-05-22T06:15:27.918Z,37.36
2023-05-22T06:16:27.969Z,37.36
2023-05-22T06:17:28.001Z,37.34
2023-05-22T06:18:27.917Z,37.33
2023-05-22T06:19:27.998Z,37.41
2023-05-22T06:20:27.912Z,37.39
2023-05-22T06:21:27.937Z,37.38
2023-05-22T06:22:27.933Z,37.39
2023-05-22T06:23:27.981Z,37.36
2023-05-22T06:24:28.030Z,37.38
2023-05-22T06:25:28.024Z,37.34
2023-05-22T06:26:28.074Z,37.37
2023-05-22T06:27:28.130Z,37.34
2023-05-22T06:28:28.109Z,37.34
2023-05-22T06:29:28.109Z,37.36
2023-05-22T06:30:38.895Z,37.34
2023-05-22T06:31:29.195Z,37.36
2023-05-22T06:32:28.255Z,37.37
2023-05-22T06:33:28.236Z,37.30
2023-05-22T06:34:28.183Z,37.30
2023-05-22T06:35:28.127Z,37.29
2023-05-22T06:36:28.094Z,37.27
2023-05-22T06:37:28.170Z,37.30
2023-05-22T06:38:28.097Z,37.31
2023-05-22T06:39:29.703Z,37.27
2023-05-22T06:40:28.187Z,37.27
2023-05-22T06:41:28.166Z,37.23
2023-05-22T06:42:28.227Z,37.25
2023-05-22T06:43:28.308Z,37.24
2023-05-22T06:44:28.350Z,37.22
2023-05-22T06:45:28.400Z,37.23
2023-05-22T06:46:28.551Z,37.20
2023-05-22T06:47:28.543Z,37.21
2023-05-22T06:48:28.528Z,37.16
2023-05-22T06:49:28.605Z,37.13
2023-05-22T06:50:28.859Z,37.15
2023-05-22T06:51:28.773Z,37.16
2023-05-22T06:52:28.807Z,37.17
2023-05-22T06:53:29.087Z,37.20
2023-05-22T06:54:28.887Z,37.35
2023-05-22T06:55:28.998Z,37.40
2023-05-22T06:56:29.036Z,37.84
2023-05-22T06:57:29.155Z,38.70
2023-05-22T06:58:29.021Z,39.14
2023-05-22T06:59:29.148Z,39.66
2023-05-22T07:00:29.157Z,40.51
2023-05-22T07:01:29.214Z,41.10
2023-05-22T07:02:29.278Z,41.31
2023-05-22T07:03:29.182Z,41.87
2023-05-22T07:04:29.218Z,42.48
2023-05-22T07:05:29.285Z,42.63
2023-05-22T07:06:29.255Z,42.68
2023-05-22T07:07:29.273Z,42.90
2023-05-22T07:08:30.568Z,43.06
2023-05-22T07:09:29.280Z,43.33
2023-05-22T07:10:29.240Z,43.44
2023-05-22T07:11:29.289Z,43.53
2023-05-22T07:12:29.314Z,43.83
2023-05-22T07:13:29.343Z,44.05
2023-05-22T07:14:29.408Z,43.91
2023-05-22T07:15:29.469Z,44.19
2023-05-22T07:16:29.554Z,44.35
2023-05-22T07:17:29.629Z,44.34
2023-05-22T07:18:29.646Z,44.51
2023-05-22T07:19:29.732Z,44.83
2023-05-22T07:20:29.777Z,44.74
2023-05-22T07:21:29.764Z,44.73
2023-05-22T07:22:29.780Z,44.84
2023-05-22T07:23:29.804Z,44.90
2023-05-22T07:24:29.788Z,44.83
2023-05-22T07:25:29.861Z,44.94
2023-05-22T07:26:29.840Z,45.02
2023-05-22T07:27:29.846Z,45.03
2023-05-22T07:28:29.841Z,45.17
2023-05-22T07:29:29.865Z,45.25
2023-05-22T07:30:29.880Z,45.35
2023-05-22T07:31:29.940Z,45.30
2023-05-22T07:32:29.954Z,45.23
2023-05-22T07:33:29.878Z,45.31
2023-05-22T07:34:29.910Z,45.52
2023-05-22T07:35:29.887Z,45.42
2023-05-22T07:36:29.883Z,45.35
2023-05-22T07:37:30.058Z,45.57
2023-05-22T07:38:29.919Z,45.73
2023-05-22T07:39:29.934Z,45.71
2023-05-22T07:40:30.522Z,45.72
2023-05-22T07:41:30.006Z,45.80
2023-05-22T07:42:30.038Z,45.82
2023-05-22T07:43:30.129Z,45.86
2023-05-22T07:44:30.387Z,45.97
2023-05-22T07:45:30.237Z,46.13
2023-05-22T07:46:30.331Z,45.72
2023-05-22T07:47:30.475Z,46.00
2023-05-22T07:48:30.484Z,45.88
2023-05-22T07:49:30.408Z,45.89
2023-05-22T07:50:30.577Z,45.72
2023-05-22T07:51:30.600Z,45.52
2023-05-22T07:52:30.598Z,45.27
2023-05-22T07:53:30.633Z,45.04
2023-05-22T07:54:30.683Z,44.79
2023-05-22T07:55:30.695Z,43.82
2023-05-22T07:56:30.750Z,43.34
2023-05-22T07:57:30.843Z,43.36
2023-05-22T07:58:30.856Z,41.36
2023-05-22T07:59:30.938Z,42.09
2023-05-22T08:00:31.007Z,40.46
2023-05-22T08:01:31.015Z,40.76
2023-05-22T08:02:31.172Z,40.74
2023-05-22T08:03:31.342Z,39.66
2023-05-22T08:04:31.282Z,39.78
2023-05-22T08:05:31.332Z,39.58
2023-05-22T08:06:31.349Z,39.84
2023-05-22T08:07:31.430Z,39.31
2023-05-22T08:08:32.220Z,39.40
2023-05-22T08:09:31.530Z,38.94
2023-05-22T08:10:46.529Z,39.16
2023-05-22T08:11:32.610Z,38.47
2023-05-22T08:12:31.602Z,38.28
2023-05-22T08:13:31.577Z,38.64
2023-05-22T08:14:31.560Z,37.98
2023-05-22T08:15:31.569Z,37.15
2023-05-22T08:16:31.649Z,38.31
2023-05-22T08:17:31.567Z,38.30
2023-05-22T08:18:31.516Z,38.06
2023-05-22T08:19:31.675Z,37.64
2023-05-22T08:20:31.682Z,37.92
2023-05-22T08:21:31.740Z,37.94
2023-05-22T08:22:31.752Z,37.62
2023-05-22T08:23:31.771Z,37.39
2023-05-22T08:24:31.797Z,37.39
2023-05-22T08:25:31.824Z,37.56
2023-05-22T08:26:32.279Z,37.07
2023-05-22T08:27:32.008Z,36.11
2023-05-22T08:28:31.977Z,36.67
2023-05-22T08:29:32.040Z,34.64
2023-05-22T08:30:32.072Z,36.22
2023-05-22T08:31:32.140Z,36.83
2023-05-22T08:32:39.707Z,37.26
2023-05-22T08:33:32.131Z,37.62
2023-05-22T08:34:32.123Z,37.87
2023-05-22T08:35:32.107Z,38.01
2023-05-22T08:36:32.110Z,38.01
2023-05-22T08:37:32.120Z,38.09
2023-05-22T08:38:32.080Z,38.07
2023-05-22T08:39:32.042Z,38.03
2023-05-22T08:40:32.116Z,38.05
2023-05-22T08:41:32.068Z,38.07
2023-05-22T08:42:32.042Z,37.91
2023-05-22T08:43:32.056Z,37.42
2023-05-22T08:44:32.019Z,37.65
2023-05-22T08:45:32.037Z,37.33
2023-05-22T08:46:32.047Z,37.10
2023-05-22T08:47:32.057Z,36.97
2023-05-22T08:48:32.081Z,37.01
2023-05-22T08:49:32.025Z,37.09
2023-05-22T08:50:32.030Z,37.35
2023-05-22T08:51:32.097Z,37.62
2023-05-22T08:52:32.147Z,37.82
2023-05-22T08:53:32.181Z,38.02
2023-05-22T08:54:32.192Z,37.99
2023-05-22T08:55:32.270Z,37.67
2023-05-22T08:56:33.529Z,37.73
2023-05-22T08:57:32.321Z,37.82
2023-05-22T08:58:32.283Z,37.74
2023-05-22T08:59:32.269Z,38.39
2023-05-22T09:00:32.248Z,37.99
2023-05-22T09:01:32.316Z,38.34
2023-05-22T09:02:32.247Z,38.49
2023-05-22T09:03:32.277Z,38.38
2023-05-22T09:04:32.288Z,38.39
2023-05-22T09:05:32.205Z,38.51
2023-05-22T09:06:32.211Z,38.87
2023-05-22T09:07:32.213Z,39.21
2023-05-22T09:08:32.202Z,39.45
2023-05-22T09:09:32.207Z,39.45
2023-05-22T09:10:32.211Z,39.77
2023-05-22T09:11:32.209Z,39.96
2023-05-22T09:12:32.189Z,40.17
2023-05-22T09:13:32.178Z,40.25
2023-05-22T09:14:32.155Z,40.14
2023-05-22T09:15:32.187Z,40.61
2023-05-22T09:16:32.177Z,40.77
2023-05-22T09:17:32.226Z,40.53
2023-05-22T09:18:32.177Z,40.89
2023-05-22T09:19:32.164Z,41.07
2023-05-22T09:20:32.348Z,41.11
2023-05-22T09:21:32.144Z,41.04
2023-05-22T09:22:32.134Z,41.16
2023-05-22T09:23:32.112Z,41.31
2023-05-22T09:24:32.112Z,41.12
2023-05-22T09:25:32.122Z,41.37
2023-05-22T09:26:32.113Z,42.04
2023-05-22T09:27:32.094Z,41.69
2023-05-22T09:28:32.050Z,42.00
2023-05-22T09:29:32.093Z,42.09
2023-05-22T09:30:32.034Z,42.01
2023-05-22T09:31:32.156Z,42.14
2023-05-22T09:32:32.628Z,42.07
2023-05-22T09:33:32.039Z,42.45
2023-05-22T09:34:32.032Z,42.55
2023-05-22T09:35:32.047Z,42.66
2023-05-22T09:36:32.048Z,42.64
2023-05-22T09:37:32.526Z,42.47
2023-05-22T09:38:32.003Z,42.68
2023-05-22T09:39:32.004Z,42.83
2023-05-22T09:40:31.989Z,42.85
2023-05-22T09:41:31.988Z,43.00
2023-05-22T09:42:31.987Z,42.86
2023-05-22T09:43:32.004Z,43.18
2023-05-22T09:44:31.997Z,42.26
2023-05-22T09:45:31.977Z,42.44
2023-05-22T09:46:32.088Z,39.39
2023-05-22T09:47:31.970Z,38.14
2023-05-22T09:48:31.991Z,38.05
2023-05-22T09:49:31.941Z,36.56
2023-05-22T09:50:31.935Z,36.30
2023-05-22T09:51:31.943Z,38.04
2023-05-22T09:52:32.000Z,37.46
2023-05-22T09:53:32.010Z,35.32
2023-05-22T09:54:32.023Z,36.35
2023-05-22T09:55:32.056Z,35.42
2023-05-22T09:56:39.314Z,35.12
2023-05-22T09:57:33.048Z,35.05
2023-05-22T09:58:32.047Z,35.17
2023-05-22T09:59:32.033Z,35.60
2023-05-22T10:00:32.055Z,35.80
2023-05-22T10:01:32.050Z,35.34
2023-05-22T10:02:32.039Z,35.11
2023-05-22T10:03:32.038Z,35.80
2023-05-22T10:04:32.039Z,35.53
2023-05-22T10:05:32.065Z,35.24
2023-05-22T10:06:32.022Z,35.49
2023-05-22T10:07:32.006Z,36.38
2023-05-22T10:08:31.995Z,35.68
2023-05-22T10:09:31.966Z,35.07
2023-05-22T10:10:31.991Z,35.74
2023-05-22T10:11:31.997Z,35.55
2023-05-22T10:12:31.996Z,35.22
2023-05-22T10:13:31.973Z,35.91
2023-05-22T10:14:31.985Z,36.81
2023-05-22T10:15:31.920Z,35.86
2023-05-22T10:16:31.968Z,35.59
2023-05-22T10:17:31.974Z,35.81
2023-05-22T10:18:31.956Z,34.86
2023-05-22T10:19:32.000Z,35.53
2023-05-22T10:20:31.900Z,35.29
2023-05-22T10:21:31.892Z,35.86
2023-05-22T10:22:31.918Z,36.18
2023-05-22T10:23:31.922Z,36.31
2023-05-22T10:24:31.993Z,37.29
2023-05-22T10:25:31.878Z,37.56
2023-05-22T10:26:31.906Z,37.38
2023-05-22T10:27:31.887Z,37.81
2023-05-22T10:28:31.911Z,38.28
2023-05-22T10:29:31.844Z,38.20
2023-05-22T10:30:31.915Z,37.81
2023-05-22T10:31:31.949Z,37.55
2023-05-22T10:32:32.038Z,37.57
2023-05-22T10:33:32.141Z,37.67
2023-05-22T10:34:32.190Z,37.79
2023-05-22T10:35:32.230Z,37.87
2023-05-22T10:36:32.293Z,37.29
2023-05-22T10:37:32.349Z,37.03
2023-05-22T10:38:32.380Z,36.80
2023-05-22T10:39:32.445Z,37.02
2023-05-22T10:40:32.664Z,35.93
2023-05-22T10:41:32.579Z,36.44
2023-05-22T10:42:32.765Z,36.73
2023-05-22T10:43:32.702Z,37.15
2023-05-22T10:44:32.737Z,37.28
2023-05-22T10:45:32.980Z,37.51
2023-05-22T10:46:32.854Z,37.55
2023-05-22T10:47:32.873Z,37.55
2023-05-22T10:48:32.859Z,37.60
2023-05-22T10:49:32.828Z,37.69
2023-05-22T10:50:32.846Z,37.81
2023-05-22T10:51:32.850Z,37.82
2023-05-22T10:52:32.901Z,37.86
2023-05-22T10:53:32.903Z,37.79
2023-05-22T10:54:32.899Z,37.76
2023-05-22T10:55:32.967Z,37.85
2023-05-22T10:56:33.089Z,37.87
2023-05-22T10:57:33.117Z,37.84
2023-05-22T10:58:33.092Z,37.83
2023-05-22T10:59:33.082Z,37.82
2023-05-22T11:00:33.152Z,37.78
2023-05-22T11:01:33.219Z,37.70
2023-05-22T11:02:33.351Z,37.78
2023-05-22T11:03:33.356Z,37.75
2023-05-22T11:04:33.357Z,37.77
2023-05-22T11:05:33.393Z,37.82
2023-05-22T11:06:33.515Z,37.83
2023-05-22T11:07:33.560Z,37.87
2023-05-22T11:08:33.595Z,37.89
2023-05-22T11:09:33.658Z,37.81
2023-05-22T11:10:33.695Z,37.82
2023-05-22T11:11:33.745Z,37.80
2023-05-22T11:12:33.874Z,37.74
2023-05-22T11:13:33.816Z,37.79
2023-05-22T11:14:33.871Z,37.74
2023-05-22T11:15:33.850Z,37.71
2023-05-22T11:16:33.923Z,37.71
2023-05-22T11:17:33.895Z,37.68
2023-05-22T11:18:33.874Z,37.67
2023-05-22T11:19:33.997Z,37.64
2023-05-22T11:20:33.893Z,37.61
2023-05-22T11:21:33.894Z,37.58
2023-05-22T11:22:33.862Z,37.54
2023-05-22T11:23:33.912Z,37.57
2023-05-22T11:24:33.867Z,37.50
2023-05-22T11:25:33.891Z,37.49
2023-05-22T11:26:33.863Z,37.46
2023-05-22T11:27:33.861Z,37.41
2023-05-22T11:28:33.956Z,37.35
2023-05-22T11:29:33.852Z,37.32
2023-05-22T11:30:33.889Z,37.24
2023-05-22T11:31:33.914Z,37.18
2023-05-22T11:32:33.942Z,37.14
2023-05-22T11:33:33.870Z,37.03
2023-05-22T11:34:33.917Z,37.03
2023-05-22T11:35:33.925Z,37.00
2023-05-22T11:36:33.917Z,36.93
2023-05-22T11:37:33.901Z,36.87
2023-05-22T11:38:33.920Z,36.77
2023-05-22T11:39:33.951Z,36.73
2023-05-22T11:40:34.017Z,36.65
2023-05-22T11:41:34.244Z,36.58
2023-05-22T11:42:33.994Z,36.55
2023-05-22T11:43:34.014Z,36.57
2023-05-22T11:44:34.124Z,36.57
2023-05-22T11:45:34.037Z,36.52
2023-05-22T11:46:34.079Z,36.43
2023-05-22T11:47:34.132Z,36.48
2023-05-22T11:48:34.078Z,36.43
2023-05-22T11:49:34.132Z,36.35
2023-05-22T11:50:42.296Z,36.26
2023-05-22T11:51:35.160Z,36.27
2023-05-22T11:52:35.067Z,36.28
2023-05-22T11:53:34.621Z,36.19
2023-05-22T11:54:35.274Z,36.21
2023-05-22T11:55:34.110Z,36.21
2023-05-22T11:56:34.105Z,36.05
2023-05-22T11:57:34.101Z,36.05
2023-05-22T11:58:34.086Z,35.91
2023-05-22T11:59:34.058Z,35.87
2023-05-22T12:00:34.299Z,35.88
2023-05-22T12:01:34.108Z,35.83
2023-05-22T12:02:34.177Z,35.74
2023-05-22T12:03:34.238Z,35.69
2023-05-22T12:04:34.093Z,35.76
2023-05-22T12:05:34.120Z,35.71
2023-05-22T12:06:34.181Z,35.63
2023-05-22T12:07:34.178Z,35.64
2023-05-22T12:08:34.197Z,35.61
2023-05-22T12:09:35.046Z,35.56
2023-05-22T12:10:34.261Z,35.44
2023-05-22T12:11:34.312Z,35.44
2023-05-22T12:12:34.409Z,35.38
2023-05-22T12:13:34.376Z,35.41
2023-05-22T12:14:34.426Z,35.33
2023-05-22T12:15:34.453Z,35.21
2023-05-22T12:16:34.631Z,35.15
2023-05-22T12:17:34.576Z,35.16
2023-05-22T12:18:34.595Z,35.15
2023-05-22T12:19:34.733Z,35.19
2023-05-22T12:20:34.678Z,35.12
2023-05-22T12:21:34.748Z,35.15
2023-05-22T12:22:34.786Z,35.09
2023-05-22T12:23:34.815Z,35.07
2023-05-22T12:24:34.859Z,35.15
2023-05-22T12:25:34.894Z,35.01
2023-05-22T12:26:35.005Z,35.08
2023-05-22T12:27:36.526Z,34.99
2023-05-22T12:28:34.976Z,34.90
2023-05-22T12:29:34.994Z,34.70
2023-05-22T12:30:34.992Z,34.75
2023-05-22T12:31:35.008Z,34.88
2023-05-22T12:32:35.081Z,34.84
2023-05-22T12:33:34.953Z,34.77
2023-05-22T12:34:34.958Z,34.73
2023-05-22T12:35:34.955Z,34.69
2023-05-22T12:36:35.007Z,34.66
2023-05-22T12:37:34.923Z,34.65
2023-05-22T12:38:35.669Z,34.54
2023-05-22T12:39:34.899Z,34.39
2023-05-22T12:40:34.934Z,34.40
2023-05-22T12:41:34.888Z,34.44
2023-05-22T12:42:34.910Z,34.35
2023-05-22T12:43:34.909Z,34.11
2023-05-22T12:44:34.881Z,34.07
2023-05-22T12:45:34.887Z,33.99
2023-05-22T12:46:34.914Z,33.93
2023-05-22T12:47:34.875Z,33.74
2023-05-22T12:48:34.963Z,33.76
2023-05-22T12:49:34.882Z,33.75
2023-05-22T12:50:34.854Z,33.72
2023-05-22T12:51:34.882Z,33.75
2023-05-22T12:52:34.873Z,33.74
2023-05-22T12:53:34.843Z,33.82